Evansville Regional (EVV)

 

Airport Diagram
Current Weather/Forecast (VFR Conditions)
METAR KEVV 091154Z 19012G21KT 10SM SCT100 18/12 A2962 RMK AO2 SLP029 T01780122 10178 20117 56040 $
TAF KEVV 091120Z 0912/1012 19014G23KT P6SM BKN070 WS020/21050KT FM091400 22017G36KT 5SM SHRA BR VCTS OVC029CB WS020/22050KT FM091500 21016G24KT 3SM SHRA BR VCTS OVC015CB FM091700 21015G32KT P6SM OVC011 FM091900 24012G26KT 3SM SHRA BR VCTS OVC008CB FM092200 32009KT 4SM SHRA BR VCTS OVC007CB FM092300 34011G22KT P6SM VCTS OVC007CB FM100600 02008KT P6SM BKN008

Airport Information

All Charts
General
Chart Name View
AIRPORT DIAGRAM
TAKEOFF MINIMUMS
ALTERNATE MINIMUMS
RADAR MINIMUMS
HOT SPOT

Approaches
Chart Name Download
ILS OR LOC RWY 04
ILS OR LOC RWY 22
RNAV (GPS) RWY 04
RNAV (GPS) RWY 18
RNAV (GPS) RWY 22
RNAV (GPS) RWY 36
VOR RWY 04


Airport Statistics
Departures Arrivals Local
All Collected Stats since June 2016: 256 212 33
2021 Stats: 112 69 22
May Stats: 10 6 2

Inbound Traffic (Arrivals) - 0

No inbound traffic.


Outbound Traffic (Departures) - 0

No outbound traffic.


Local Traffic (Pattern) - 0

No local traffic.